sensor_id;sensor_type;location;lat;lon;timestamp;P1;durP1;ratioP1;P2;durP2;ratioP2
23561;SDS011;11959;49.418;8.728;2022-08-03T00:01:27;2.83;;;2.08;;
23561;SDS011;11959;49.418;8.728;2022-08-03T00:03:53;2.85;;;2.13;;
23561;SDS011;11959;49.418;8.728;2022-08-03T00:06:19;3.85;;;1.98;;
23561;SDS011;11959;49.418;8.728;2022-08-03T00:08:44;3.10;;;2.20;;
23561;SDS011;11959;49.418;8.728;2022-08-03T00:11:10;3.13;;;2.28;;
23561;SDS011;11959;49.418;8.728;2022-08-03T00:13:36;2.63;;;2.20;;
23561;SDS011;11959;49.418;8.728;2022-08-03T00:16:01;5.45;;;2.00;;
23561;SDS011;11959;49.418;8.728;2022-08-03T00:18:27;2.30;;;2.10;;
23561;SDS011;11959;49.418;8.728;2022-08-03T00:20:53;2.40;;;2.20;;
23561;SDS011;11959;49.418;8.728;2022-08-03T00:23:18;3.38;;;2.20;;
23561;SDS011;11959;49.418;8.728;2022-08-03T00:25:44;3.17;;;2.50;;
23561;SDS011;11959;49.418;8.728;2022-08-03T00:28:10;3.33;;;2.50;;
23561;SDS011;11959;49.418;8.728;2022-08-03T00:30:36;2.58;;;2.20;;
23561;SDS011;11959;49.418;8.728;2022-08-03T00:33:02;2.25;;;1.98;;
23561;SDS011;11959;49.418;8.728;2022-08-03T00:35:28;2.50;;;2.25;;
23561;SDS011;11959;49.418;8.728;2022-08-03T00:37:54;3.20;;;2.38;;
23561;SDS011;11959;49.418;8.728;2022-08-03T00:40:20;2.95;;;2.35;;
23561;SDS011;11959;49.418;8.728;2022-08-03T00:42:52;2.60;;;2.05;;
23561;SDS011;11959;49.418;8.728;2022-08-03T00:45:21;2.78;;;2.35;;
23561;SDS011;11959;49.418;8.728;2022-08-03T00:47:51;3.38;;;2.33;;
23561;SDS011;11959;49.418;8.728;2022-08-03T00:50:18;4.10;;;2.10;;
23561;SDS011;11959;49.418;8.728;2022-08-03T00:52:47;3.60;;;2.38;;
23561;SDS011;11959;49.418;8.728;2022-08-03T00:55:13;2.85;;;2.50;;
23561;SDS011;11959;49.418;8.728;2022-08-03T00:57:39;3.53;;;2.20;;
23561;SDS011;11959;49.418;8.728;2022-08-03T01:00:06;3.28;;;2.30;;
23561;SDS011;11959;49.418;8.728;2022-08-03T01:02:34;2.60;;;2.22;;
23561;SDS011;11959;49.418;8.728;2022-08-03T01:05:00;3.13;;;2.22;;
23561;SDS011;11959;49.418;8.728;2022-08-03T01:13:19;3.40;;;2.47;;
23561;SDS011;11959;49.418;8.728;2022-08-03T01:16:01;2.65;;;2.20;;
23561;SDS011;11959;49.418;8.728;2022-08-03T01:21:02;2.88;;;2.30;;
23561;SDS011;11959;49.418;8.728;2022-08-03T01:31:58;2.30;;;2.00;;
23561;SDS011;11959;49.418;8.728;2022-08-03T01:34:33;2.95;;;2.10;;
23561;SDS011;11959;49.418;8.728;2022-08-03T01:37:05;2.85;;;2.10;;
23561;SDS011;11959;49.418;8.728;2022-08-03T01:39:35;3.40;;;2.30;;
23561;SDS011;11959;49.418;8.728;2022-08-03T01:42:04;3.80;;;2.08;;
23561;SDS011;11959;49.418;8.728;2022-08-03T01:44:36;2.95;;;2.20;;
23561;SDS011;11959;49.418;8.728;2022-08-03T01:49:32;2.65;;;2.10;;
23561;SDS011;11959;49.418;8.728;2022-08-03T01:52:02;3.30;;;2.40;;
23561;SDS011;11959;49.418;8.728;2022-08-03T01:54:28;2.20;;;2.00;;
23561;SDS011;11959;49.418;8.728;2022-08-03T01:56:56;2.70;;;2.40;;
23561;SDS011;11959;49.418;8.728;2022-08-03T01:59:23;2.25;;;2.05;;
23561;SDS011;11959;49.418;8.728;2022-08-03T02:01:50;2.20;;;2.00;;
23561;SDS011;11959;49.418;8.728;2022-08-03T02:04:17;2.97;;;2.53;;
23561;SDS011;11959;49.418;8.728;2022-08-03T02:06:45;2.60;;;2.22;;
23561;SDS011;11959;49.418;8.728;2022-08-03T02:09:12;2.80;;;2.50;;
23561;SDS011;11959;49.418;8.728;2022-08-03T02:11:39;3.80;;;2.40;;
23561;SDS011;11959;49.418;8.728;2022-08-03T02:14:07;2.08;;;1.75;;
23561;SDS011;11959;49.418;8.728;2022-08-03T02:16:34;2.33;;;2.08;;
23561;SDS011;11959;49.418;8.728;2022-08-03T02:19:01;2.70;;;2.20;;
23561;SDS011;11959;49.418;8.728;2022-08-03T02:21:31;3.38;;;2.13;;
23561;SDS011;11959;49.418;8.728;2022-08-03T02:24:00;3.10;;;2.40;;
23561;SDS011;11959;49.418;8.728;2022-08-03T02:26:28;2.88;;;2.20;;
23561;SDS011;11959;49.418;8.728;2022-08-03T02:28:55;2.85;;;2.15;;
23561;SDS011;11959;49.418;8.728;2022-08-03T02:31:23;2.50;;;2.30;;
23561;SDS011;11959;49.418;8.728;2022-08-03T02:33:53;3.75;;;2.50;;
23561;SDS011;11959;49.418;8.728;2022-08-03T02:36:27;3.30;;;1.90;;
23561;SDS011;11959;49.418;8.728;2022-08-03T02:38:55;3.72;;;2.50;;
23561;SDS011;11959;49.418;8.728;2022-08-03T02:41:26;4.20;;;2.30;;
23561;SDS011;11959;49.418;8.728;2022-08-03T02:43:56;3.60;;;2.58;;
23561;SDS011;11959;49.418;8.728;2022-08-03T02:46:27;3.08;;;2.70;;
23561;SDS011;11959;49.418;8.728;2022-08-03T02:48:59;2.88;;;2.20;;
23561;SDS011;11959;49.418;8.728;2022-08-03T02:51:27;3.65;;;2.50;;
23561;SDS011;11959;49.418;8.728;2022-08-03T02:53:55;3.80;;;2.67;;
23561;SDS011;11959;49.418;8.728;2022-08-03T02:56:22;2.65;;;2.35;;
23561;SDS011;11959;49.418;8.728;2022-08-03T02:58:49;2.70;;;2.33;;
23561;SDS011;11959;49.418;8.728;2022-08-03T03:01:18;2.72;;;2.40;;
23561;SDS011;11959;49.418;8.728;2022-08-03T03:03:47;4.05;;;2.58;;
23561;SDS011;11959;49.418;8.728;2022-08-03T03:06:15;2.72;;;2.30;;
23561;SDS011;11959;49.418;8.728;2022-08-03T03:08:43;3.80;;;2.20;;
23561;SDS011;11959;49.418;8.728;2022-08-03T03:11:10;4.50;;;2.42;;
23561;SDS011;11959;49.418;8.728;2022-08-03T03:13:38;3.03;;;2.15;;
23561;SDS011;11959;49.418;8.728;2022-08-03T03:16:05;2.85;;;2.40;;
23561;SDS011;11959;49.418;8.728;2022-08-03T03:18:32;4.68;;;2.67;;
23561;SDS011;11959;49.418;8.728;2022-08-03T03:20:59;3.28;;;2.80;;
23561;SDS011;11959;49.418;8.728;2022-08-03T03:23:26;3.53;;;2.75;;
23561;SDS011;11959;49.418;8.728;2022-08-03T03:25:54;3.85;;;2.65;;
23561;SDS011;11959;49.418;8.728;2022-08-03T03:28:22;2.95;;;2.60;;
23561;SDS011;11959;49.418;8.728;2022-08-03T03:30:49;4.28;;;2.50;;
23561;SDS011;11959;49.418;8.728;2022-08-03T03:33:15;3.25;;;2.53;;
23561;SDS011;11959;49.418;8.728;2022-08-03T03:35:41;3.80;;;2.40;;
23561;SDS011;11959;49.418;8.728;2022-08-03T03:38:09;2.60;;;2.40;;
23561;SDS011;11959;49.418;8.728;2022-08-03T03:40:35;2.78;;;2.50;;
23561;SDS011;11959;49.418;8.728;2022-08-03T03:43:03;2.60;;;2.40;;
23561;SDS011;11959;49.418;8.728;2022-08-03T03:45:32;3.80;;;2.63;;
23561;SDS011;11959;49.418;8.728;2022-08-03T03:48:05;3.95;;;2.50;;
23561;SDS011;11959;49.418;8.728;2022-08-03T03:50:32;3.35;;;2.70;;
23561;SDS011;11959;49.418;8.728;2022-08-03T03:52:59;3.08;;;2.47;;
23561;SDS011;11959;49.418;8.728;2022-08-03T03:55:26;2.50;;;2.30;;
23561;SDS011;11959;49.418;8.728;2022-08-03T03:57:52;2.72;;;2.33;;
23561;SDS011;11959;49.418;8.728;2022-08-03T04:00:18;3.85;;;2.70;;
23561;SDS011;11959;49.418;8.728;2022-08-03T04:02:44;3.00;;;2.50;;
23561;SDS011;11959;49.418;8.728;2022-08-03T04:05:10;3.00;;;2.45;;
23561;SDS011;11959;49.418;8.728;2022-08-03T04:10:45;3.13;;;2.83;;
23561;SDS011;11959;49.418;8.728;2022-08-03T04:13:24;3.20;;;2.72;;
23561;SDS011;11959;49.418;8.728;2022-08-03T04:15:57;3.47;;;2.60;;
23561;SDS011;11959;49.418;8.728;2022-08-03T04:18:24;2.90;;;2.60;;
23561;SDS011;11959;49.418;8.728;2022-08-03T04:20:53;3.00;;;2.70;;
23561;SDS011;11959;49.418;8.728;2022-08-03T04:23:21;4.13;;;2.58;;
23561;SDS011;11959;49.418;8.728;2022-08-03T04:25:51;5.45;;;3.13;;
23561;SDS011;11959;49.418;8.728;2022-08-03T04:28:18;3.88;;;2.75;;
23561;SDS011;11959;49.418;8.728;2022-08-03T04:30:46;3.20;;;2.55;;
23561;SDS011;11959;49.418;8.728;2022-08-03T04:33:15;4.15;;;2.42;;
23561;SDS011;11959;49.418;8.728;2022-08-03T04:35:43;3.78;;;2.83;;
23561;SDS011;11959;49.418;8.728;2022-08-03T04:38:13;3.35;;;2.70;;
23561;SDS011;11959;49.418;8.728;2022-08-03T04:40:42;4.63;;;2.70;;
23561;SDS011;11959;49.418;8.728;2022-08-03T04:43:09;3.85;;;3.10;;
23561;SDS011;11959;49.418;8.728;2022-08-03T04:45:36;3.10;;;2.80;;
23561;SDS011;11959;49.418;8.728;2022-08-03T04:48:03;3.80;;;2.85;;
23561;SDS011;11959;49.418;8.728;2022-08-03T04:50:29;3.83;;;2.83;;
23561;SDS011;11959;49.418;8.728;2022-08-03T04:52:55;3.92;;;2.70;;
23561;SDS011;11959;49.418;8.728;2022-08-03T04:55:27;2.72;;;2.50;;
23561;SDS011;11959;49.418;8.728;2022-08-03T04:57:55;3.10;;;2.75;;
23561;SDS011;11959;49.418;8.728;2022-08-03T05:00:21;4.22;;;2.90;;
23561;SDS011;11959;49.418;8.728;2022-08-03T05:02:47;3.60;;;2.60;;
23561;SDS011;11959;49.418;8.728;2022-08-03T05:05:13;3.92;;;2.60;;
23561;SDS011;11959;49.418;8.728;2022-08-03T05:07:40;3.47;;;2.80;;
23561;SDS011;11959;49.418;8.728;2022-08-03T05:10:07;3.63;;;2.80;;
23561;SDS011;11959;49.418;8.728;2022-08-03T05:12:34;4.00;;;2.70;;
23561;SDS011;11959;49.418;8.728;2022-08-03T05:15:00;2.97;;;2.72;;
23561;SDS011;11959;49.418;8.728;2022-08-03T05:17:26;2.97;;;2.50;;
23561;SDS011;11959;49.418;8.728;2022-08-03T05:19:52;4.10;;;2.65;;
23561;SDS011;11959;49.418;8.728;2022-08-03T05:22:18;2.88;;;2.45;;
23561;SDS011;11959;49.418;8.728;2022-08-03T05:24:44;3.05;;;2.75;;
23561;SDS011;11959;49.418;8.728;2022-08-03T05:27:10;4.03;;;2.85;;
23561;SDS011;11959;49.418;8.728;2022-08-03T05:29:41;3.60;;;3.03;;
23561;SDS011;11959;49.418;8.728;2022-08-03T05:32:07;3.97;;;3.00;;
23561;SDS011;11959;49.418;8.728;2022-08-03T05:34:33;3.10;;;2.80;;
23561;SDS011;11959;49.418;8.728;2022-08-03T05:36:59;5.10;;;3.05;;
23561;SDS011;11959;49.418;8.728;2022-08-03T05:39:24;3.17;;;2.85;;
23561;SDS011;11959;49.418;8.728;2022-08-03T05:41:50;3.22;;;2.70;;
23561;SDS011;11959;49.418;8.728;2022-08-03T05:44:15;3.22;;;2.92;;
23561;SDS011;11959;49.418;8.728;2022-08-03T05:46:41;3.15;;;2.50;;
23561;SDS011;11959;49.418;8.728;2022-08-03T05:49:07;4.30;;;2.78;;
23561;SDS011;11959;49.418;8.728;2022-08-03T05:51:32;2.88;;;2.60;;
23561;SDS011;11959;49.418;8.728;2022-08-03T05:53:58;3.30;;;2.50;;
23561;SDS011;11959;49.418;8.728;2022-08-03T05:56:24;2.72;;;2.50;;
23561;SDS011;11959;49.418;8.728;2022-08-03T05:58:49;3.17;;;2.58;;
23561;SDS011;11959;49.418;8.728;2022-08-03T06:01:17;3.55;;;2.88;;
23561;SDS011;11959;49.418;8.728;2022-08-03T06:03:43;3.63;;;2.80;;
23561;SDS011;11959;49.418;8.728;2022-08-03T06:06:09;3.15;;;2.70;;
23561;SDS011;11959;49.418;8.728;2022-08-03T06:08:35;3.38;;;2.30;;
23561;SDS011;11959;49.418;8.728;2022-08-03T06:11:01;3.38;;;2.47;;
23561;SDS011;11959;49.418;8.728;2022-08-03T06:13:28;4.30;;;2.90;;
23561;SDS011;11959;49.418;8.728;2022-08-03T06:15:53;3.38;;;2.72;;
23561;SDS011;11959;49.418;8.728;2022-08-03T06:18:19;3.25;;;2.83;;
23561;SDS011;11959;49.418;8.728;2022-08-03T06:20:45;5.13;;;3.22;;
23561;SDS011;11959;49.418;8.728;2022-08-03T06:23:10;4.03;;;2.60;;
23561;SDS011;11959;49.418;8.728;2022-08-03T06:25:36;4.00;;;2.53;;
23561;SDS011;11959;49.418;8.728;2022-08-03T06:28:01;3.00;;;2.47;;
23561;SDS011;11959;49.418;8.728;2022-08-03T06:30:29;5.65;;;2.78;;
23561;SDS011;11959;49.418;8.728;2022-08-03T06:32:54;3.35;;;2.40;;
23561;SDS011;11959;49.418;8.728;2022-08-03T06:35:20;4.32;;;2.55;;
23561;SDS011;11959;49.418;8.728;2022-08-03T06:37:49;3.28;;;2.58;;
23561;SDS011;11959;49.418;8.728;2022-08-03T06:40:16;5.15;;;2.45;;
23561;SDS011;11959;49.418;8.728;2022-08-03T06:42:52;3.70;;;2.50;;
23561;SDS011;11959;49.418;8.728;2022-08-03T06:45:18;3.13;;;2.35;;
23561;SDS011;11959;49.418;8.728;2022-08-03T06:47:43;3.08;;;2.20;;
23561;SDS011;11959;49.418;8.728;2022-08-03T06:50:09;3.08;;;2.17;;
23561;SDS011;11959;49.418;8.728;2022-08-03T06:52:35;2.97;;;2.10;;
23561;SDS011;11959;49.418;8.728;2022-08-03T06:55:01;3.50;;;2.30;;
23561;SDS011;11959;49.418;8.728;2022-08-03T06:57:27;3.35;;;2.50;;
23561;SDS011;11959;49.418;8.728;2022-08-03T06:59:52;2.50;;;2.10;;
23561;SDS011;11959;49.418;8.728;2022-08-03T07:02:20;3.13;;;2.10;;
23561;SDS011;11959;49.418;8.728;2022-08-03T07:04:49;2.58;;;2.28;;
23561;SDS011;11959;49.418;8.728;2022-08-03T07:07:14;3.00;;;2.33;;
23561;SDS011;11959;49.418;8.728;2022-08-03T07:09:41;3.00;;;2.00;;
23561;SDS011;11959;49.418;8.728;2022-08-03T07:12:06;1.95;;;1.75;;
23561;SDS011;11959;49.418;8.728;2022-08-03T07:14:32;2.40;;;2.20;;
23561;SDS011;11959;49.418;8.728;2022-08-03T07:16:58;2.20;;;2.00;;
23561;SDS011;11959;49.418;8.728;2022-08-03T07:19:23;2.72;;;2.00;;
23561;SDS011;11959;49.418;8.728;2022-08-03T07:21:50;3.20;;;2.13;;
23561;SDS011;11959;49.418;8.728;2022-08-03T07:24:15;4.10;;;2.05;;
23561;SDS011;11959;49.418;8.728;2022-08-03T07:26:41;4.18;;;2.08;;
23561;SDS011;11959;49.418;8.728;2022-08-03T07:29:06;2.00;;;1.88;;
23561;SDS011;11959;49.418;8.728;2022-08-03T07:31:32;3.00;;;2.22;;
23561;SDS011;11959;49.418;8.728;2022-08-03T07:33:58;2.38;;;2.08;;
23561;SDS011;11959;49.418;8.728;2022-08-03T07:36:23;2.53;;;2.33;;
23561;SDS011;11959;49.418;8.728;2022-08-03T07:38:49;3.05;;;2.10;;
23561;SDS011;11959;49.418;8.728;2022-08-03T07:41:15;2.95;;;2.35;;
23561;SDS011;11959;49.418;8.728;2022-08-03T07:43:41;2.00;;;1.90;;
23561;SDS011;11959;49.418;8.728;2022-08-03T07:46:06;2.63;;;2.20;;
23561;SDS011;11959;49.418;8.728;2022-08-03T07:48:32;3.28;;;2.17;;
23561;SDS011;11959;49.418;8.728;2022-08-03T07:50:57;2.75;;;2.15;;
23561;SDS011;11959;49.418;8.728;2022-08-03T07:53:23;3.08;;;2.53;;
23561;SDS011;11959;49.418;8.728;2022-08-03T07:55:49;2.60;;;2.40;;
23561;SDS011;11959;49.418;8.728;2022-08-03T07:58:15;3.00;;;2.42;;
23561;SDS011;11959;49.418;8.728;2022-08-03T08:00:41;3.10;;;2.20;;
23561;SDS011;11959;49.418;8.728;2022-08-03T08:03:08;4.05;;;2.40;;
23561;SDS011;11959;49.418;8.728;2022-08-03T08:05:34;3.20;;;2.30;;
23561;SDS011;11959;49.418;8.728;2022-08-03T08:08:00;2.72;;;2.20;;
23561;SDS011;11959;49.418;8.728;2022-08-03T08:10:27;3.97;;;2.17;;
23561;SDS011;11959;49.418;8.728;2022-08-03T08:12:53;2.40;;;2.20;;
23561;SDS011;11959;49.418;8.728;2022-08-03T08:15:19;3.25;;;2.20;;
23561;SDS011;11959;49.418;8.728;2022-08-03T08:17:49;2.83;;;2.17;;
23561;SDS011;11959;49.418;8.728;2022-08-03T08:20:21;2.30;;;2.10;;
23561;SDS011;11959;49.418;8.728;2022-08-03T08:22:53;2.20;;;2.00;;
23561;SDS011;11959;49.418;8.728;2022-08-03T08:27:51;2.40;;;2.20;;
23561;SDS011;11959;49.418;8.728;2022-08-03T08:30:20;3.70;;;1.98;;
23561;SDS011;11959;49.418;8.728;2022-08-03T08:32:47;2.15;;;1.70;;
23561;SDS011;11959;49.418;8.728;2022-08-03T08:35:14;2.90;;;1.90;;
23561;SDS011;11959;49.418;8.728;2022-08-03T08:37:40;2.60;;;1.67;;
23561;SDS011;11959;49.418;8.728;2022-08-03T08:40:07;2.40;;;2.00;;
23561;SDS011;11959;49.418;8.728;2022-08-03T08:42:38;3.10;;;2.00;;
23561;SDS011;11959;49.418;8.728;2022-08-03T08:45:07;2.13;;;1.92;;
23561;SDS011;11959;49.418;8.728;2022-08-03T08:47:36;2.50;;;2.05;;
23561;SDS011;11959;49.418;8.728;2022-08-03T08:50:03;3.70;;;1.90;;
23561;SDS011;11959;49.418;8.728;2022-08-03T08:52:32;2.08;;;1.75;;
23561;SDS011;11959;49.418;8.728;2022-08-03T08:54:59;2.17;;;1.70;;
23561;SDS011;11959;49.418;8.728;2022-08-03T08:57:28;2.05;;;1.85;;
23561;SDS011;11959;49.418;8.728;2022-08-03T08:59:57;2.38;;;1.80;;
23561;SDS011;11959;49.418;8.728;2022-08-03T09:02:23;2.00;;;1.80;;
23561;SDS011;11959;49.418;8.728;2022-08-03T09:04:50;3.78;;;1.77;;
23561;SDS011;11959;49.418;8.728;2022-08-03T09:07:17;2.85;;;1.92;;
23561;SDS011;11959;49.418;8.728;2022-08-03T09:09:43;1.50;;;1.40;;
23561;SDS011;11959;49.418;8.728;2022-08-03T09:12:08;2.33;;;1.73;;
23561;SDS011;11959;49.418;8.728;2022-08-03T09:14:34;3.17;;;1.80;;
23561;SDS011;11959;49.418;8.728;2022-08-03T09:17:01;1.85;;;1.70;;
23561;SDS011;11959;49.418;8.728;2022-08-03T09:19:28;2.10;;;1.55;;
23561;SDS011;11959;49.418;8.728;2022-08-03T09:22:08;1.92;;;1.70;;
23561;SDS011;11959;49.418;8.728;2022-08-03T09:24:36;1.95;;;1.60;;
23561;SDS011;11959;49.418;8.728;2022-08-03T09:27:07;2.45;;;1.70;;
23561;SDS011;11959;49.418;8.728;2022-08-03T09:29:37;2.53;;;1.98;;
23561;SDS011;11959;49.418;8.728;2022-08-03T09:32:03;2.60;;;1.92;;
23561;SDS011;11959;49.418;8.728;2022-08-03T09:34:29;3.50;;;2.17;;
23561;SDS011;11959;49.418;8.728;2022-08-03T09:36:55;2.08;;;1.65;;
23561;SDS011;11959;49.418;8.728;2022-08-03T09:39:24;2.10;;;1.70;;
23561;SDS011;11959;49.418;8.728;2022-08-03T09:42:08;2.05;;;1.85;;
23561;SDS011;11959;49.418;8.728;2022-08-03T09:44:40;2.65;;;1.80;;
23561;SDS011;11959;49.418;8.728;2022-08-03T09:47:26;2.55;;;2.00;;
23561;SDS011;11959;49.418;8.728;2022-08-03T09:49:57;3.65;;;1.95;;
23561;SDS011;11959;49.418;8.728;2022-08-03T09:52:44;4.13;;;1.73;;
23561;SDS011;11959;49.418;8.728;2022-08-03T09:55:12;2.67;;;1.88;;
23561;SDS011;11959;49.418;8.728;2022-08-03T09:57:38;2.13;;;1.80;;
23561;SDS011;11959;49.418;8.728;2022-08-03T10:00:09;2.17;;;1.80;;
23561;SDS011;11959;49.418;8.728;2022-08-03T10:02:37;2.58;;;1.77;;
23561;SDS011;11959;49.418;8.728;2022-08-03T10:05:04;2.30;;;1.98;;
23561;SDS011;11959;49.418;8.728;2022-08-03T10:07:40;2.78;;;1.83;;
23561;SDS011;11959;49.418;8.728;2022-08-03T10:10:07;2.65;;;1.70;;
23561;SDS011;11959;49.418;8.728;2022-08-03T10:12:34;2.53;;;1.63;;
23561;SDS011;11959;49.418;8.728;2022-08-03T10:15:01;2.10;;;1.73;;
23561;SDS011;11959;49.418;8.728;2022-08-03T10:17:27;3.08;;;1.92;;
23561;SDS011;11959;49.418;8.728;2022-08-03T10:19:53;2.15;;;1.92;;
23561;SDS011;11959;49.418;8.728;2022-08-03T10:22:21;3.15;;;1.90;;
23561;SDS011;11959;49.418;8.728;2022-08-03T10:27:33;2.42;;;2.00;;
23561;SDS011;11959;49.418;8.728;2022-08-03T10:30:01;2.50;;;1.60;;
23561;SDS011;11959;49.418;8.728;2022-08-03T10:35:21;3.17;;;1.83;;
23561;SDS011;11959;49.418;8.728;2022-08-03T10:37:59;2.20;;;1.50;;
23561;SDS011;11959;49.418;8.728;2022-08-03T10:40:28;3.40;;;2.00;;
23561;SDS011;11959;49.418;8.728;2022-08-03T10:43:00;3.35;;;1.92;;
23561;SDS011;11959;49.418;8.728;2022-08-03T10:45:31;4.30;;;2.03;;
23561;SDS011;11959;49.418;8.728;2022-08-03T10:48:00;2.40;;;1.80;;
23561;SDS011;11959;49.418;8.728;2022-08-03T10:50:26;3.70;;;1.83;;
23561;SDS011;11959;49.418;8.728;2022-08-03T10:53:10;2.33;;;1.90;;
23561;SDS011;11959;49.418;8.728;2022-08-03T10:55:40;2.22;;;1.73;;
23561;SDS011;11959;49.418;8.728;2022-08-03T11:01:00;2.53;;;1.75;;
23561;SDS011;11959;49.418;8.728;2022-08-03T11:03:26;3.10;;;1.88;;
23561;SDS011;11959;49.418;8.728;2022-08-03T11:05:52;3.28;;;1.83;;
23561;SDS011;11959;49.418;8.728;2022-08-03T11:08:36;2.28;;;1.90;;
23561;SDS011;11959;49.418;8.728;2022-08-03T11:19:11;4.85;;;2.05;;
23561;SDS011;11959;49.418;8.728;2022-08-03T11:37:35;2.85;;;1.80;;
23561;SDS011;11959;49.418;8.728;2022-08-03T11:43:06;2.45;;;1.63;;
23561;SDS011;11959;49.418;8.728;2022-08-03T11:45:34;2.20;;;2.00;;
23561;SDS011;11959;49.418;8.728;2022-08-03T11:48:14;2.03;;;1.70;;
23561;SDS011;11959;49.418;8.728;2022-08-03T11:50:40;4.28;;;2.00;;
23561;SDS011;11959;49.418;8.728;2022-08-03T11:53:12;1.80;;;1.70;;
23561;SDS011;11959;49.418;8.728;2022-08-03T11:55:41;3.33;;;1.87;;
23561;SDS011;11959;49.418;8.728;2022-08-03T11:58:14;2.78;;;1.73;;
23561;SDS011;11959;49.418;8.728;2022-08-03T12:00:43;1.65;;;1.55;;
23561;SDS011;11959;49.418;8.728;2022-08-03T12:03:10;4.10;;;1.92;;
23561;SDS011;11959;49.418;8.728;2022-08-03T12:10:39;2.22;;;1.85;;
23561;SDS011;11959;49.418;8.728;2022-08-03T12:13:11;2.75;;;1.85;;
23561;SDS011;11959;49.418;8.728;2022-08-03T12:15:36;2.55;;;1.90;;
23561;SDS011;11959;49.418;8.728;2022-08-03T12:18:03;3.00;;;1.98;;
23561;SDS011;11959;49.418;8.728;2022-08-03T12:20:37;2.58;;;1.88;;
23561;SDS011;11959;49.418;8.728;2022-08-03T12:23:03;1.90;;;1.80;;
23561;SDS011;11959;49.418;8.728;2022-08-03T12:25:31;4.45;;;2.08;;
23561;SDS011;11959;49.418;8.728;2022-08-03T12:30:41;2.22;;;1.90;;
23561;SDS011;11959;49.418;8.728;2022-08-03T12:33:26;2.15;;;1.95;;
23561;SDS011;11959;49.418;8.728;2022-08-03T12:38:28;3.10;;;2.05;;
23561;SDS011;11959;49.418;8.728;2022-08-03T12:40:54;2.92;;;2.15;;
23561;SDS011;11959;49.418;8.728;2022-08-03T12:43:24;4.13;;;1.70;;
23561;SDS011;11959;49.418;8.728;2022-08-03T12:45:50;2.05;;;1.77;;
23561;SDS011;11959;49.418;8.728;2022-08-03T12:48:16;3.10;;;1.80;;
23561;SDS011;11959;49.418;8.728;2022-08-03T12:50:41;2.70;;;1.70;;
23561;SDS011;11959;49.418;8.728;2022-08-03T12:53:08;2.45;;;1.85;;
23561;SDS011;11959;49.418;8.728;2022-08-03T12:55:37;3.08;;;1.70;;
23561;SDS011;11959;49.418;8.728;2022-08-03T12:58:04;3.80;;;1.83;;
23561;SDS011;11959;49.418;8.728;2022-08-03T13:00:32;2.22;;;1.75;;
23561;SDS011;11959;49.418;8.728;2022-08-03T13:03:16;2.33;;;1.85;;
23561;SDS011;11959;49.418;8.728;2022-08-03T13:05:42;3.42;;;1.80;;
23561;SDS011;11959;49.418;8.728;2022-08-03T13:08:18;2.08;;;1.88;;
23561;SDS011;11959;49.418;8.728;2022-08-03T13:10:45;2.55;;;1.88;;
23561;SDS011;11959;49.418;8.728;2022-08-03T13:13:11;2.15;;;1.92;;
23561;SDS011;11959;49.418;8.728;2022-08-03T13:15:36;2.47;;;1.90;;
23561;SDS011;11959;49.418;8.728;2022-08-03T13:18:02;2.38;;;1.70;;
23561;SDS011;11959;49.418;8.728;2022-08-03T13:20:28;1.80;;;1.60;;
23561;SDS011;11959;49.418;8.728;2022-08-03T13:22:53;1.90;;;1.70;;
23561;SDS011;11959;49.418;8.728;2022-08-03T13:25:20;2.42;;;1.77;;
23561;SDS011;11959;49.418;8.728;2022-08-03T13:27:46;3.25;;;1.98;;
23561;SDS011;11959;49.418;8.728;2022-08-03T13:30:13;2.45;;;1.70;;
23561;SDS011;11959;49.418;8.728;2022-08-03T13:32:39;2.63;;;1.80;;
23561;SDS011;11959;49.418;8.728;2022-08-03T13:35:05;3.80;;;1.60;;
23561;SDS011;11959;49.418;8.728;2022-08-03T13:37:32;3.63;;;1.70;;
23561;SDS011;11959;49.418;8.728;2022-08-03T13:39:59;1.70;;;1.60;;
23561;SDS011;11959;49.418;8.728;2022-08-03T13:42:25;5.22;;;2.08;;
23561;SDS011;11959;49.418;8.728;2022-08-03T13:44:52;4.95;;;1.88;;
23561;SDS011;11959;49.418;8.728;2022-08-03T13:47:18;3.33;;;1.70;;
23561;SDS011;11959;49.418;8.728;2022-08-03T13:49:44;2.85;;;1.90;;
23561;SDS011;11959;49.418;8.728;2022-08-03T13:52:09;3.65;;;1.75;;
23561;SDS011;11959;49.418;8.728;2022-08-03T13:54:35;2.05;;;1.70;;
23561;SDS011;11959;49.418;8.728;2022-08-03T13:57:01;3.35;;;1.80;;
23561;SDS011;11959;49.418;8.728;2022-08-03T13:59:27;2.28;;;1.70;;
23561;SDS011;11959;49.418;8.728;2022-08-03T14:01:52;3.45;;;2.05;;
23561;SDS011;11959;49.418;8.728;2022-08-03T14:04:18;2.90;;;2.05;;
23561;SDS011;11959;49.418;8.728;2022-08-03T14:06:45;4.00;;;2.15;;
23561;SDS011;11959;49.418;8.728;2022-08-03T14:09:14;2.67;;;1.85;;
23561;SDS011;11959;49.418;8.728;2022-08-03T14:11:40;2.00;;;1.80;;
23561;SDS011;11959;49.418;8.728;2022-08-03T14:14:07;2.22;;;2.00;;
23561;SDS011;11959;49.418;8.728;2022-08-03T14:16:34;3.00;;;1.85;;
23561;SDS011;11959;49.418;8.728;2022-08-03T14:19:00;5.63;;;2.30;;
23561;SDS011;11959;49.418;8.728;2022-08-03T14:21:25;2.88;;;1.80;;
23561;SDS011;11959;49.418;8.728;2022-08-03T14:23:51;2.10;;;1.90;;
23561;SDS011;11959;49.418;8.728;2022-08-03T14:26:17;3.92;;;2.25;;
23561;SDS011;11959;49.418;8.728;2022-08-03T14:28:44;2.90;;;1.85;;
23561;SDS011;11959;49.418;8.728;2022-08-03T14:31:10;3.15;;;1.95;;
23561;SDS011;11959;49.418;8.728;2022-08-03T14:33:36;2.08;;;1.70;;
23561;SDS011;11959;49.418;8.728;2022-08-03T14:36:02;2.53;;;1.83;;
23561;SDS011;11959;49.418;8.728;2022-08-03T14:38:28;3.15;;;2.00;;
23561;SDS011;11959;49.418;8.728;2022-08-03T14:40:54;4.85;;;1.70;;
23561;SDS011;11959;49.418;8.728;2022-08-03T14:43:20;2.33;;;2.03;;
23561;SDS011;11959;49.418;8.728;2022-08-03T14:45:46;3.75;;;2.03;;
23561;SDS011;11959;49.418;8.728;2022-08-03T14:48:16;2.88;;;1.98;;
23561;SDS011;11959;49.418;8.728;2022-08-03T14:50:42;3.55;;;2.03;;
23561;SDS011;11959;49.418;8.728;2022-08-03T14:53:08;2.92;;;1.77;;
23561;SDS011;11959;49.418;8.728;2022-08-03T14:55:34;3.00;;;2.00;;
23561;SDS011;11959;49.418;8.728;2022-08-03T14:57:59;2.92;;;1.70;;
23561;SDS011;11959;49.418;8.728;2022-08-03T15:00:29;3.60;;;1.75;;
23561;SDS011;11959;49.418;8.728;2022-08-03T15:02:55;2.72;;;1.52;;
23561;SDS011;11959;49.418;8.728;2022-08-03T15:05:21;1.85;;;1.60;;
23561;SDS011;11959;49.418;8.728;2022-08-03T15:07:47;2.63;;;1.67;;
23561;SDS011;11959;49.418;8.728;2022-08-03T15:10:12;3.00;;;2.10;;
23561;SDS011;11959;49.418;8.728;2022-08-03T15:12:38;2.35;;;1.70;;
23561;SDS011;11959;49.418;8.728;2022-08-03T15:15:04;2.17;;;1.75;;
23561;SDS011;11959;49.418;8.728;2022-08-03T15:17:30;2.55;;;1.70;;
23561;SDS011;11959;49.418;8.728;2022-08-03T15:19:55;2.70;;;1.92;;
23561;SDS011;11959;49.418;8.728;2022-08-03T15:22:21;2.85;;;1.80;;
23561;SDS011;11959;49.418;8.728;2022-08-03T15:24:47;2.22;;;1.77;;
23561;SDS011;11959;49.418;8.728;2022-08-03T15:27:12;1.92;;;1.70;;
23561;SDS011;11959;49.418;8.728;2022-08-03T15:29:38;1.90;;;1.67;;
23561;SDS011;11959;49.418;8.728;2022-08-03T15:32:04;2.85;;;1.88;;
23561;SDS011;11959;49.418;8.728;2022-08-03T15:34:29;3.28;;;1.65;;
23561;SDS011;11959;49.418;8.728;2022-08-03T15:36:55;2.45;;;1.70;;
23561;SDS011;11959;49.418;8.728;2022-08-03T15:39:21;2.88;;;1.70;;
23561;SDS011;11959;49.418;8.728;2022-08-03T15:41:46;2.55;;;1.67;;
23561;SDS011;11959;49.418;8.728;2022-08-03T15:44:12;1.80;;;1.40;;
23561;SDS011;11959;49.418;8.728;2022-08-03T15:46:37;2.58;;;1.90;;
23561;SDS011;11959;49.418;8.728;2022-08-03T15:49:03;2.88;;;1.70;;
23561;SDS011;11959;49.418;8.728;2022-08-03T15:51:29;2.35;;;1.63;;
23561;SDS011;11959;49.418;8.728;2022-08-03T15:53:54;2.67;;;1.65;;
23561;SDS011;11959;49.418;8.728;2022-08-03T15:56:21;2.00;;;1.70;;
23561;SDS011;11959;49.418;8.728;2022-08-03T15:58:47;2.60;;;1.80;;
23561;SDS011;11959;49.418;8.728;2022-08-03T16:01:13;3.10;;;1.70;;